createdAt,value
2023-05-21T00:02:12.087Z,13.67
2023-05-21T00:05:15.567Z,14.57
2023-05-21T00:08:17.464Z,15.27
2023-05-21T00:11:19.334Z,13.07
2023-05-21T00:14:21.237Z,15.43
2023-05-21T00:17:23.473Z,15.50
2023-05-21T00:20:25.401Z,15.10
2023-05-21T00:23:27.808Z,13.17
2023-05-21T00:26:29.674Z,14.27
2023-05-21T00:29:31.449Z,15.87
2023-05-21T00:32:33.267Z,13.03
2023-05-21T00:35:35.308Z,14.47
2023-05-21T00:38:38.153Z,13.77
2023-05-21T00:41:43.233Z,14.00
2023-05-21T00:44:45.642Z,13.00
2023-05-21T00:47:48.605Z,12.67
2023-05-21T00:50:50.754Z,14.00
2023-05-21T00:53:54.356Z,14.43
2023-05-21T00:56:56.378Z,14.20
2023-05-21T00:59:58.151Z,14.73
2023-05-21T01:03:01.644Z,12.97
2023-05-21T01:06:06.893Z,14.30
2023-05-21T01:09:09.359Z,11.97
2023-05-21T01:12:12.781Z,14.60
2023-05-21T01:15:14.846Z,16.10
2023-05-21T01:18:17.086Z,13.13
2023-05-21T01:21:21.695Z,14.30
2023-05-21T01:24:23.544Z,14.43
2023-05-21T01:27:25.388Z,14.33
2023-05-21T01:30:27.642Z,14.90
2023-05-21T01:33:40.041Z,13.60
2023-05-21T01:36:49.506Z,13.77
2023-05-21T01:39:59.376Z,13.87
2023-05-21T01:43:03.492Z,14.30
2023-05-21T01:46:07.467Z,13.87
2023-05-21T01:49:09.805Z,13.77
2023-05-21T01:52:12.931Z,13.97
2023-05-21T01:55:15.138Z,15.47
2023-05-21T01:58:17.302Z,13.57
2023-05-21T02:01:19.367Z,17.20
2023-05-21T02:04:21.165Z,13.33
2023-05-21T02:07:23.734Z,16.63
2023-05-21T02:10:25.981Z,14.37
2023-05-21T02:13:29.217Z,13.47
2023-05-21T02:16:31.795Z,14.70
2023-05-21T02:19:33.812Z,15.03
2023-05-21T02:22:36.050Z,14.07
2023-05-21T02:25:38.212Z,14.93
2023-05-21T02:28:40.638Z,16.23
2023-05-21T02:31:42.531Z,12.83
2023-05-21T02:34:45.171Z,12.47
2023-05-21T02:37:47.155Z,14.43
2023-05-21T02:40:51.331Z,13.63
2023-05-21T02:43:53.258Z,14.23
2023-05-21T02:46:55.306Z,12.33
2023-05-21T02:50:00.245Z,13.90
2023-05-21T02:53:02.189Z,13.80
2023-05-21T02:56:04.239Z,16.83
2023-05-21T02:59:06.383Z,14.40
2023-05-21T03:02:08.266Z,13.83
2023-05-21T03:05:10.598Z,14.13
2023-05-21T03:08:12.516Z,15.10
2023-05-21T03:11:14.374Z,15.67
2023-05-21T03:14:16.493Z,14.30
2023-05-21T03:17:18.896Z,14.93
2023-05-21T03:20:20.765Z,15.53
2023-05-21T03:23:22.789Z,14.43
2023-05-21T03:26:27.494Z,13.60
2023-05-21T03:29:29.583Z,14.40
2023-05-21T03:32:33.801Z,14.27
2023-05-21T03:35:35.848Z,14.47
2023-05-21T03:38:37.863Z,15.33
2023-05-21T03:41:39.731Z,13.77
2023-05-21T03:44:41.540Z,16.43
2023-05-21T03:47:43.468Z,15.20
2023-05-21T03:50:45.312Z,14.73
2023-05-21T03:53:47.224Z,15.40
2023-05-21T03:56:49.064Z,15.77
2023-05-21T03:59:51.098Z,16.77
2023-05-21T04:02:53.184Z,14.03
2023-05-21T04:05:55.090Z,13.73
2023-05-21T04:08:56.950Z,13.83
2023-05-21T04:11:58.791Z,16.67
2023-05-21T04:15:02.596Z,14.83
2023-05-21T04:18:05.295Z,13.90
2023-05-21T04:21:07.622Z,15.43
2023-05-21T04:24:09.672Z,14.70
2023-05-21T04:27:11.543Z,14.53
2023-05-21T04:30:13.863Z,14.90
2023-05-21T04:33:20.479Z,15.17
2023-05-21T04:36:22.371Z,15.57
2023-05-21T04:39:24.264Z,14.63
2023-05-21T04:42:26.211Z,15.00
2023-05-21T04:45:28.351Z,14.73
2023-05-21T04:48:30.149Z,15.87
2023-05-21T04:51:31.952Z,15.90
2023-05-21T04:54:34.077Z,14.47
2023-05-21T04:57:36.011Z,15.97
2023-05-21T05:00:42.181Z,14.33
2023-05-21T05:03:45.955Z,15.13
2023-05-21T05:06:47.944Z,14.20
2023-05-21T05:09:49.849Z,15.43
2023-05-21T05:12:51.730Z,14.90
2023-05-21T05:15:54.821Z,15.97
2023-05-21T05:18:56.995Z,16.23
2023-05-21T05:21:58.962Z,14.25
2023-05-21T05:25:01.049Z,16.00
2023-05-21T05:28:03.421Z,15.98
2023-05-21T05:31:05.618Z,14.10
2023-05-21T05:34:07.597Z,15.18
2023-05-21T05:37:09.471Z,14.55
2023-05-21T05:40:11.486Z,14.85
2023-05-21T05:43:13.274Z,13.10
2023-05-21T05:46:15.293Z,17.02
2023-05-21T05:49:17.226Z,14.50
2023-05-21T05:52:19.014Z,14.48
2023-05-21T05:55:22.108Z,14.40
2023-05-21T05:58:23.932Z,14.57
2023-05-21T06:01:26.312Z,14.57
2023-05-21T06:04:30.111Z,15.32
2023-05-21T06:07:32.068Z,14.63
2023-05-21T06:10:34.089Z,15.30
2023-05-21T06:13:36.060Z,13.90
2023-05-21T06:16:37.972Z,14.70
2023-05-21T06:19:40.028Z,13.68
2023-05-21T06:22:41.867Z,13.38
2023-05-21T06:25:44.158Z,13.25
2023-05-21T06:28:46.218Z,14.32
2023-05-21T06:31:48.930Z,13.80
2023-05-21T06:34:50.979Z,13.98
2023-05-21T06:37:52.832Z,16.13
2023-05-21T06:40:54.979Z,14.05
2023-05-21T06:43:57.277Z,16.00
2023-05-21T06:46:59.215Z,15.18
2023-05-21T06:50:01.462Z,15.10
2023-05-21T06:53:03.310Z,16.13
2023-05-21T06:56:05.369Z,17.05
2023-05-21T06:59:07.226Z,13.45
2023-05-21T07:02:09.100Z,13.63
2023-05-21T07:05:11.222Z,15.07
2023-05-21T07:08:13.157Z,13.07
2023-05-21T07:11:15.095Z,13.32
2023-05-21T07:14:16.969Z,15.40
2023-05-21T07:17:18.803Z,16.45
2023-05-21T07:20:20.750Z,15.27
2023-05-21T07:23:22.691Z,14.23
2023-05-21T07:26:26.097Z,12.35
2023-05-21T07:29:28.534Z,14.77
2023-05-21T07:32:30.512Z,14.48
2023-05-21T07:35:32.909Z,14.65
2023-05-21T07:38:35.392Z,13.43
2023-05-21T07:41:37.257Z,14.40
2023-05-21T07:44:39.222Z,12.45
2023-05-21T07:47:41.212Z,13.25
2023-05-21T07:50:43.222Z,13.13
2023-05-21T07:53:45.236Z,15.35
2023-05-21T07:56:47.192Z,14.27
2023-05-21T07:59:49.083Z,13.38
2023-05-21T08:02:52.390Z,15.82
2023-05-21T08:05:54.615Z,12.18
2023-05-21T08:08:57.371Z,13.85
2023-05-21T08:11:59.178Z,13.95
2023-05-21T08:15:01.029Z,12.25
2023-05-21T08:18:03.063Z,15.70
2023-05-21T08:21:05.227Z,11.95
2023-05-21T08:24:07.592Z,12.52
2023-05-21T08:27:09.476Z,12.48
2023-05-21T08:30:12.348Z,12.10
2023-05-21T08:33:14.960Z,12.93
2023-05-21T08:36:16.838Z,13.10
2023-05-21T08:39:18.894Z,12.98
2023-05-21T08:42:40.909Z,12.70
2023-05-21T08:45:45.845Z,11.23
2023-05-21T08:48:48.370Z,12.48
2023-05-21T08:51:52.388Z,10.38
2023-05-21T08:54:56.814Z,12.13
2023-05-21T08:57:58.747Z,12.45
2023-05-21T09:01:00.829Z,10.90
2023-05-21T09:04:16.221Z,12.23
2023-05-21T09:07:22.928Z,10.00
2023-05-21T09:10:34.117Z,10.95
2023-05-21T09:13:39.140Z,11.82
2023-05-21T09:16:41.353Z,11.75
2023-05-21T09:20:16.201Z,11.13
2023-05-21T09:23:19.291Z,9.38
2023-05-21T09:26:22.242Z,10.35
2023-05-21T09:29:27.044Z,9.73
2023-05-21T09:32:29.254Z,12.00
2023-05-21T09:35:35.617Z,11.18
2023-05-21T09:38:38.720Z,12.75
2023-05-21T09:41:42.694Z,10.43
2023-05-21T09:44:44.673Z,11.90
2023-05-21T09:47:47.633Z,11.38
2023-05-21T09:50:49.555Z,10.30
2023-05-21T09:54:01.261Z,11.95
2023-05-21T09:57:03.295Z,8.63
2023-05-21T10:00:06.636Z,11.07
2023-05-21T10:03:11.812Z,9.70
2023-05-21T10:06:14.995Z,10.23
2023-05-21T10:09:19.287Z,11.23
2023-05-21T10:12:24.162Z,9.90
2023-05-21T10:15:28.466Z,11.07
2023-05-21T10:18:32.388Z,11.07
2023-05-21T10:21:34.904Z,12.98
2023-05-21T10:24:38.128Z,12.25
2023-05-21T10:27:40.793Z,13.40
2023-05-21T10:30:43.364Z,23.00
2023-05-21T10:33:45.330Z,21.27
2023-05-21T10:36:50.022Z,19.02
2023-05-21T10:39:52.181Z,14.18
2023-05-21T10:43:23.830Z,13.85
2023-05-21T10:47:04.926Z,10.82
2023-05-21T10:50:31.004Z,9.75
2023-05-21T10:53:57.759Z,11.13
2023-05-21T10:57:18.019Z,8.38
2023-05-21T11:00:21.319Z,7.10
2023-05-21T11:03:23.823Z,8.32
2023-05-21T11:06:27.175Z,10.77
2023-05-21T11:09:29.097Z,8.20
2023-05-21T11:12:35.238Z,10.75
2023-05-21T11:15:59.102Z,7.88
2023-05-21T11:19:01.720Z,9.48
2023-05-21T11:22:21.715Z,7.43
2023-05-21T11:25:23.658Z,8.95
2023-05-21T11:28:34.118Z,8.18
2023-05-21T11:31:39.463Z,8.77
2023-05-21T11:34:48.212Z,7.90
2023-05-21T11:37:54.056Z,8.40
2023-05-21T11:41:01.242Z,7.68
2023-05-21T11:44:03.203Z,8.38
2023-05-21T11:47:06.145Z,8.20
2023-05-21T11:50:13.567Z,7.85
2023-05-21T11:53:15.686Z,8.45
2023-05-21T11:56:18.367Z,9.90
2023-05-21T11:59:20.797Z,8.27
2023-05-21T12:02:23.006Z,7.95
2023-05-21T12:05:25.142Z,7.80
2023-05-21T12:08:27.343Z,7.50
2023-05-21T12:11:29.573Z,7.55
2023-05-21T12:14:32.287Z,8.45
2023-05-21T12:17:34.431Z,8.90
2023-05-21T12:20:36.528Z,7.43
2023-05-21T12:23:38.851Z,8.70
2023-05-21T12:26:42.233Z,8.23
2023-05-21T12:29:46.441Z,9.02
2023-05-21T12:32:49.495Z,10.02
2023-05-21T12:35:52.728Z,7.82
2023-05-21T12:38:55.173Z,7.88
2023-05-21T12:41:57.628Z,10.18
2023-05-21T12:44:59.477Z,8.68
2023-05-21T12:48:02.848Z,8.85
2023-05-21T12:51:04.789Z,8.48
2023-05-21T12:54:13.709Z,11.98
2023-05-21T12:57:21.304Z,9.40
2023-05-21T13:00:26.475Z,8.95
2023-05-21T13:03:28.445Z,7.43
2023-05-21T13:06:30.417Z,8.93
2023-05-21T13:09:32.661Z,8.23
2023-05-21T13:12:34.922Z,9.40
2023-05-21T13:15:36.905Z,8.35
2023-05-21T13:18:38.726Z,11.25
2023-05-21T13:21:40.650Z,8.10
2023-05-21T13:24:42.497Z,8.18
2023-05-21T13:27:45.189Z,8.20
2023-05-21T13:30:47.050Z,9.93
2023-05-21T13:33:48.922Z,10.60
2023-05-21T13:36:51.055Z,8.95
2023-05-21T13:39:52.890Z,8.38
2023-05-21T13:42:54.798Z,9.93
2023-05-21T13:45:56.604Z,9.10
2023-05-21T13:48:58.622Z,8.57
2023-05-21T13:52:00.987Z,10.63
2023-05-21T13:55:03.262Z,8.07
2023-05-21T13:58:05.170Z,7.80
2023-05-21T14:01:07.734Z,9.63
2023-05-21T14:04:09.669Z,7.90
2023-05-21T14:07:12.219Z,9.05
2023-05-21T14:10:14.401Z,9.85
2023-05-21T14:13:20.124Z,10.93
2023-05-21T14:16:24.963Z,7.63
2023-05-21T14:19:27.246Z,9.48
2023-05-21T14:22:29.303Z,8.50
2023-05-21T14:25:31.428Z,9.80
2023-05-21T14:28:33.214Z,9.00
2023-05-21T14:31:35.354Z,8.55
2023-05-21T14:34:38.660Z,8.77
2023-05-21T14:37:41.694Z,10.00
2023-05-21T14:40:43.445Z,9.07
2023-05-21T14:43:45.306Z,8.63
2023-05-21T14:46:47.159Z,8.93
2023-05-21T14:49:51.401Z,7.45
2023-05-21T14:52:54.547Z,8.13
2023-05-21T14:55:56.485Z,9.68
2023-05-21T14:58:58.282Z,8.15
2023-05-21T15:02:00.341Z,10.57
2023-05-21T15:05:02.335Z,9.88
2023-05-21T15:08:05.874Z,10.52
2023-05-21T15:11:09.878Z,9.00
2023-05-21T15:14:12.455Z,8.27
2023-05-21T15:17:14.346Z,9.45
2023-05-21T15:20:16.990Z,9.82
2023-05-21T15:23:19.060Z,9.45
2023-05-21T15:26:21.699Z,11.88
2023-05-21T15:29:23.644Z,10.52
2023-05-21T15:32:25.896Z,9.13
2023-05-21T15:35:28.193Z,9.77
2023-05-21T15:38:30.127Z,11.48
2023-05-21T15:41:37.361Z,10.27
2023-05-21T15:44:39.982Z,10.00
2023-05-21T15:47:42.949Z,9.80
2023-05-21T15:50:44.879Z,9.50
2023-05-21T15:53:46.717Z,8.63
2023-05-21T15:56:49.674Z,9.43
2023-05-21T15:59:52.630Z,8.27
2023-05-21T16:02:54.540Z,10.13
2023-05-21T16:05:56.370Z,9.95
2023-05-21T16:08:59.322Z,9.15
2023-05-21T16:12:01.176Z,10.77
2023-05-21T16:15:03.144Z,8.98
2023-05-21T16:18:05.042Z,10.38
2023-05-21T16:21:07.320Z,9.23
2023-05-21T16:24:09.148Z,9.02
2023-05-21T16:27:11.011Z,7.95
2023-05-21T16:30:14.205Z,10.65
2023-05-21T16:33:16.584Z,8.65
2023-05-21T16:36:18.548Z,8.43
2023-05-21T16:39:20.417Z,9.43
2023-05-21T16:42:22.233Z,11.00
2023-05-21T16:45:24.345Z,11.55
2023-05-21T16:48:26.164Z,8.65
2023-05-21T16:51:27.941Z,9.45
2023-05-21T16:54:29.705Z,11.10
2023-05-21T16:57:31.650Z,9.30
2023-05-21T17:00:34.380Z,13.50
2023-05-21T17:03:36.428Z,9.27
2023-05-21T17:06:38.296Z,9.02
2023-05-21T17:09:40.073Z,9.20
2023-05-21T17:12:41.999Z,8.23
2023-05-21T17:15:43.871Z,10.48
2023-05-21T17:18:45.688Z,10.95
2023-05-21T17:21:48.337Z,9.88
2023-05-21T17:24:50.071Z,9.63
2023-05-21T17:27:53.248Z,9.93
2023-05-21T17:30:55.210Z,10.95
2023-05-21T17:33:56.977Z,9.77
2023-05-21T17:36:59.785Z,10.32
2023-05-21T17:40:01.894Z,11.65
2023-05-21T17:43:04.859Z,10.68
2023-05-21T17:46:07.038Z,10.75
2023-05-21T17:49:09.135Z,9.95
2023-05-21T17:52:10.963Z,10.90
2023-05-21T17:55:12.813Z,10.77
2023-05-21T17:58:14.814Z,12.45
2023-05-21T18:01:16.997Z,10.20
2023-05-21T18:04:19.755Z,9.18
2023-05-21T18:07:22.279Z,9.50
2023-05-21T18:10:24.350Z,9.23
2023-05-21T18:13:26.225Z,8.23
2023-05-21T18:16:30.649Z,9.30
2023-05-21T18:19:32.882Z,13.93
2023-05-21T18:22:34.946Z,9.30
2023-05-21T18:25:36.945Z,9.05
2023-05-21T18:28:38.892Z,9.13
2023-05-21T18:31:43.056Z,9.90
2023-05-21T18:34:45.141Z,12.52
2023-05-21T18:37:48.606Z,8.82
2023-05-21T18:40:51.074Z,9.93
2023-05-21T18:43:52.903Z,8.82
2023-05-21T18:46:56.398Z,9.45
2023-05-21T18:49:59.046Z,9.20
2023-05-21T18:53:00.871Z,10.45
2023-05-21T18:56:04.915Z,9.40
2023-05-21T18:59:06.826Z,10.80
2023-05-21T19:02:09.652Z,10.13
2023-05-21T19:05:12.562Z,9.95
2023-05-21T19:08:14.513Z,10.57
2023-05-21T19:11:18.047Z,8.90
2023-05-21T19:14:20.989Z,9.80
2023-05-21T19:17:23.212Z,10.60
2023-05-21T19:20:27.231Z,10.55
2023-05-21T19:23:29.506Z,10.73
2023-05-21T19:26:34.183Z,8.77
2023-05-21T19:29:36.149Z,11.25
2023-05-21T19:32:38.046Z,11.15
2023-05-21T19:35:41.501Z,11.13
2023-05-21T19:38:50.370Z,9.30
2023-05-21T19:41:53.038Z,9.00
2023-05-21T19:44:54.790Z,10.63
2023-05-21T19:47:56.949Z,9.17
2023-05-21T19:50:58.966Z,8.73
2023-05-21T19:54:00.752Z,9.65
2023-05-21T19:57:02.664Z,13.80
2023-05-21T20:00:05.528Z,12.33
2023-05-21T20:03:07.468Z,10.77
2023-05-21T20:06:09.287Z,9.73
2023-05-21T20:09:13.237Z,9.40
2023-05-21T20:12:16.342Z,10.37
2023-05-21T20:15:18.411Z,9.63
2023-05-21T20:18:21.691Z,8.43
2023-05-21T20:21:24.562Z,11.75
2023-05-21T20:24:26.356Z,10.32
2023-05-21T20:27:28.314Z,9.55
2023-05-21T20:30:35.286Z,11.83
2023-05-21T20:33:39.914Z,11.23
2023-05-21T20:36:42.061Z,9.85
2023-05-21T20:39:45.183Z,11.45
2023-05-21T20:42:50.436Z,10.32
2023-05-21T20:45:59.556Z,9.05
2023-05-21T20:49:01.620Z,9.43
2023-05-21T20:52:03.621Z,11.68
2023-05-21T20:55:05.869Z,9.00
2023-05-21T20:58:07.650Z,11.87
2023-05-21T21:01:10.741Z,8.57
2023-05-21T21:04:12.747Z,10.47
2023-05-21T21:07:15.440Z,8.33
2023-05-21T21:10:17.330Z,11.40
2023-05-21T21:13:19.307Z,10.80
2023-05-21T21:16:21.188Z,11.63
2023-05-21T21:19:23.063Z,9.93
2023-05-21T21:22:24.992Z,10.27
2023-05-21T21:25:26.963Z,10.93
2023-05-21T21:28:29.096Z,11.10
2023-05-21T21:31:31.177Z,13.27
2023-05-21T21:34:33.057Z,10.93
2023-05-21T21:37:34.902Z,10.70
2023-05-21T21:40:36.923Z,11.53
2023-05-21T21:43:38.913Z,10.20
2023-05-21T21:46:40.939Z,9.67
2023-05-21T21:49:42.911Z,10.57
2023-05-21T21:52:46.020Z,10.77
2023-05-21T21:55:48.038Z,10.63
2023-05-21T21:58:49.970Z,10.47
2023-05-21T22:01:52.309Z,10.67
2023-05-21T22:04:54.339Z,11.63
2023-05-21T22:07:56.094Z,10.07
2023-05-21T22:10:58.872Z,13.73
2023-05-21T22:14:00.797Z,9.20
2023-05-21T22:17:02.939Z,10.07
2023-05-21T22:20:05.977Z,10.07
2023-05-21T22:23:07.774Z,11.03
2023-05-21T22:26:09.891Z,12.73
2023-05-21T22:29:11.938Z,9.97
2023-05-21T22:32:13.963Z,10.17
2023-05-21T22:35:15.874Z,10.07
2023-05-21T22:38:18.050Z,10.37
2023-05-21T22:41:19.902Z,9.73
2023-05-21T22:44:21.685Z,10.00
2023-05-21T22:47:24.189Z,10.43
2023-05-21T22:50:29.438Z,10.97
2023-05-21T22:53:32.403Z,10.77
2023-05-21T22:56:34.333Z,10.67
2023-05-21T22:59:36.243Z,10.10
2023-05-21T23:02:38.267Z,11.47
2023-05-21T23:05:40.217Z,9.73
2023-05-21T23:08:41.992Z,9.13
2023-05-21T23:11:44.794Z,11.43
2023-05-21T23:14:47.049Z,11.77
2023-05-21T23:17:48.985Z,10.70
2023-05-21T23:20:51.415Z,11.13
2023-05-21T23:23:53.198Z,11.13
2023-05-21T23:26:56.761Z,9.53
2023-05-21T23:29:58.655Z,16.23
2023-05-21T23:33:00.680Z,11.20
2023-05-21T23:36:02.607Z,11.43
2023-05-21T23:39:04.400Z,10.57
2023-05-21T23:42:06.610Z,12.63
2023-05-21T23:45:08.724Z,13.13
2023-05-21T23:48:11.902Z,10.27
2023-05-21T23:51:13.742Z,12.73
2023-05-21T23:54:17.275Z,12.60
2023-05-21T23:57:19.130Z,11.73
